sensor_id;sensor_type;location;lat;lon;timestamp;temperature;humidity
41058;DHT22;66768;48.884;2.258;2023-01-20T00:02:18;4.70;99.90
41058;DHT22;66768;48.884;2.258;2023-01-20T00:04:47;4.70;99.90
41058;DHT22;66768;48.884;2.258;2023-01-20T00:07:14;4.70;99.90
41058;DHT22;66768;48.884;2.258;2023-01-20T00:09:40;4.80;99.90
41058;DHT22;66768;48.884;2.258;2023-01-20T00:12:07;4.70;99.90
41058;DHT22;66768;48.884;2.258;2023-01-20T00:14:34;4.70;99.90
41058;DHT22;66768;48.884;2.258;2023-01-20T00:17:01;4.80;99.90
41058;DHT22;66768;48.884;2.258;2023-01-20T00:19:29;4.80;99.90
41058;DHT22;66768;48.884;2.258;2023-01-20T00:21:56;4.80;99.90
41058;DHT22;66768;48.884;2.258;2023-01-20T00:24:23;4.80;99.90
41058;DHT22;66768;48.884;2.258;2023-01-20T00:26:50;4.80;99.90
41058;DHT22;66768;48.884;2.258;2023-01-20T00:29:17;4.80;99.90
41058;DHT22;66768;48.884;2.258;2023-01-20T00:31:44;4.80;99.90
41058;DHT22;66768;48.884;2.258;2023-01-20T00:34:11;4.70;99.90
41058;DHT22;66768;48.884;2.258;2023-01-20T00:36:39;4.70;99.90
41058;DHT22;66768;48.884;2.258;2023-01-20T00:39:06;4.80;99.90
41058;DHT22;66768;48.884;2.258;2023-01-20T00:41:33;4.70;99.90
41058;DHT22;66768;48.884;2.258;2023-01-20T00:44:00;4.70;99.90
41058;DHT22;66768;48.884;2.258;2023-01-20T00:46:27;4.70;99.90
41058;DHT22;66768;48.884;2.258;2023-01-20T00:48:54;4.70;99.90
41058;DHT22;66768;48.884;2.258;2023-01-20T00:51:21;4.70;99.90
41058;DHT22;66768;48.884;2.258;2023-01-20T00:53:49;4.60;99.90
41058;DHT22;66768;48.884;2.258;2023-01-20T00:56:16;4.60;99.90
41058;DHT22;66768;48.884;2.258;2023-01-20T00:58:43;4.60;99.90
41058;DHT22;66768;48.884;2.258;2023-01-20T01:01:10;4.60;99.90
41058;DHT22;66768;48.884;2.258;2023-01-20T01:03:37;4.60;99.90
41058;DHT22;66768;48.884;2.258;2023-01-20T01:06:06;4.50;99.90
41058;DHT22;66768;48.884;2.258;2023-01-20T01:08:34;4.50;99.90
41058;DHT22;66768;48.884;2.258;2023-01-20T01:11:02;4.60;99.90
41058;DHT22;66768;48.884;2.258;2023-01-20T01:13:30;4.60;99.90
41058;DHT22;66768;48.884;2.258;2023-01-20T01:15:57;4.60;99.90
41058;DHT22;66768;48.884;2.258;2023-01-20T01:18:24;4.50;99.90
41058;DHT22;66768;48.884;2.258;2023-01-20T01:20:51;4.50;99.90
41058;DHT22;66768;48.884;2.258;2023-01-20T01:23:18;4.50;99.90
41058;DHT22;66768;48.884;2.258;2023-01-20T01:25:45;4.60;99.90
41058;DHT22;66768;48.884;2.258;2023-01-20T01:28:13;4.60;99.90
41058;DHT22;66768;48.884;2.258;2023-01-20T01:30:40;4.60;99.90
41058;DHT22;66768;48.884;2.258;2023-01-20T01:33:07;4.50;99.90
41058;DHT22;66768;48.884;2.258;2023-01-20T01:35:34;4.60;99.90
41058;DHT22;66768;48.884;2.258;2023-01-20T01:38:00;4.70;99.90
41058;DHT22;66768;48.884;2.258;2023-01-20T01:40:27;4.60;99.90
41058;DHT22;66768;48.884;2.258;2023-01-20T01:42:54;4.50;99.90
41058;DHT22;66768;48.884;2.258;2023-01-20T01:45:27;4.50;99.90
41058;DHT22;66768;48.884;2.258;2023-01-20T01:48:02;4.50;99.90
41058;DHT22;66768;48.884;2.258;2023-01-20T01:50:36;4.60;99.90
41058;DHT22;66768;48.884;2.258;2023-01-20T01:53:04;4.60;99.90
41058;DHT22;66768;48.884;2.258;2023-01-20T01:55:35;4.60;99.90
41058;DHT22;66768;48.884;2.258;2023-01-20T01:58:04;4.70;99.90
41058;DHT22;66768;48.884;2.258;2023-01-20T02:00:33;4.70;99.90
41058;DHT22;66768;48.884;2.258;2023-01-20T02:03:00;4.70;99.90
41058;DHT22;66768;48.884;2.258;2023-01-20T02:05:29;4.70;99.90
41058;DHT22;66768;48.884;2.258;2023-01-20T02:07:57;4.60;99.90
41058;DHT22;66768;48.884;2.258;2023-01-20T02:10:24;4.60;99.90
41058;DHT22;66768;48.884;2.258;2023-01-20T02:12:51;4.70;99.90
41058;DHT22;66768;48.884;2.258;2023-01-20T02:15:23;4.70;99.90
41058;DHT22;66768;48.884;2.258;2023-01-20T02:18:12;4.70;99.90
41058;DHT22;66768;48.884;2.258;2023-01-20T02:21:12;4.70;99.90
41058;DHT22;66768;48.884;2.258;2023-01-20T02:24:06;4.70;99.90
41058;DHT22;66768;48.884;2.258;2023-01-20T02:26:52;4.70;99.90
41058;DHT22;66768;48.884;2.258;2023-01-20T02:29:42;4.70;99.90
41058;DHT22;66768;48.884;2.258;2023-01-20T02:32:28;4.70;99.90
41058;DHT22;66768;48.884;2.258;2023-01-20T02:35:02;4.60;99.90
41058;DHT22;66768;48.884;2.258;2023-01-20T02:37:39;4.70;99.90
41058;DHT22;66768;48.884;2.258;2023-01-20T02:40:19;4.60;99.90
41058;DHT22;66768;48.884;2.258;2023-01-20T02:42:56;4.60;99.90
41058;DHT22;66768;48.884;2.258;2023-01-20T02:45:30;4.70;99.90
41058;DHT22;66768;48.884;2.258;2023-01-20T02:48:03;4.60;99.90
41058;DHT22;66768;48.884;2.258;2023-01-20T02:50:41;4.60;99.90
41058;DHT22;66768;48.884;2.258;2023-01-20T02:53:10;4.50;99.90
41058;DHT22;66768;48.884;2.258;2023-01-20T02:55:39;4.50;99.90
41058;DHT22;66768;48.884;2.258;2023-01-20T02:58:13;4.50;99.90
41058;DHT22;66768;48.884;2.258;2023-01-20T03:00:46;4.40;99.90
41058;DHT22;66768;48.884;2.258;2023-01-20T03:03:18;4.40;99.90
41058;DHT22;66768;48.884;2.258;2023-01-20T03:05:51;4.40;99.90
41058;DHT22;66768;48.884;2.258;2023-01-20T03:08:20;4.50;99.90
41058;DHT22;66768;48.884;2.258;2023-01-20T03:10:50;4.40;99.90
41058;DHT22;66768;48.884;2.258;2023-01-20T03:13:21;4.40;99.90
41058;DHT22;66768;48.884;2.258;2023-01-20T03:15:55;4.40;99.90
41058;DHT22;66768;48.884;2.258;2023-01-20T03:18:25;4.40;99.90
41058;DHT22;66768;48.884;2.258;2023-01-20T03:20:53;4.40;99.90
41058;DHT22;66768;48.884;2.258;2023-01-20T03:23:20;4.40;99.90
41058;DHT22;66768;48.884;2.258;2023-01-20T03:25:48;4.40;99.90
41058;DHT22;66768;48.884;2.258;2023-01-20T03:28:15;4.40;99.90
41058;DHT22;66768;48.884;2.258;2023-01-20T03:30:42;4.50;99.90
41058;DHT22;66768;48.884;2.258;2023-01-20T03:33:09;4.40;99.90
41058;DHT22;66768;48.884;2.258;2023-01-20T03:35:39;4.40;99.90
41058;DHT22;66768;48.884;2.258;2023-01-20T03:38:06;4.30;99.90
41058;DHT22;66768;48.884;2.258;2023-01-20T03:40:40;4.30;99.90
41058;DHT22;66768;48.884;2.258;2023-01-20T03:43:12;4.20;99.90
41058;DHT22;66768;48.884;2.258;2023-01-20T03:45:45;4.30;99.90
41058;DHT22;66768;48.884;2.258;2023-01-20T03:48:17;4.30;99.90
41058;DHT22;66768;48.884;2.258;2023-01-20T03:50:53;4.30;99.90
41058;DHT22;66768;48.884;2.258;2023-01-20T03:53:27;4.20;99.90
41058;DHT22;66768;48.884;2.258;2023-01-20T03:56:00;4.30;99.90
41058;DHT22;66768;48.884;2.258;2023-01-20T03:58:29;4.30;99.90
41058;DHT22;66768;48.884;2.258;2023-01-20T04:00:58;4.30;99.90
41058;DHT22;66768;48.884;2.258;2023-01-20T04:03:29;4.30;99.90
41058;DHT22;66768;48.884;2.258;2023-01-20T04:06:00;4.20;99.90
41058;DHT22;66768;48.884;2.258;2023-01-20T04:08:33;4.30;99.90
41058;DHT22;66768;48.884;2.258;2023-01-20T04:11:03;4.30;99.90
41058;DHT22;66768;48.884;2.258;2023-01-20T04:13:30;4.30;99.90
41058;DHT22;66768;48.884;2.258;2023-01-20T04:15:58;4.30;99.90
41058;DHT22;66768;48.884;2.258;2023-01-20T04:18:27;4.30;99.90
41058;DHT22;66768;48.884;2.258;2023-01-20T04:20:59;4.30;99.90
41058;DHT22;66768;48.884;2.258;2023-01-20T04:23:29;4.20;99.90
41058;DHT22;66768;48.884;2.258;2023-01-20T04:25:58;4.20;99.90
41058;DHT22;66768;48.884;2.258;2023-01-20T04:28:25;4.30;99.90
41058;DHT22;66768;48.884;2.258;2023-01-20T04:30:52;4.30;99.90
41058;DHT22;66768;48.884;2.258;2023-01-20T04:33:19;4.30;99.90
41058;DHT22;66768;48.884;2.258;2023-01-20T04:35:45;4.40;99.90
41058;DHT22;66768;48.884;2.258;2023-01-20T04:38:14;4.30;99.90
41058;DHT22;66768;48.884;2.258;2023-01-20T04:40:41;4.30;99.90
41058;DHT22;66768;48.884;2.258;2023-01-20T04:43:08;4.30;99.90
41058;DHT22;66768;48.884;2.258;2023-01-20T04:45:36;4.30;99.90
41058;DHT22;66768;48.884;2.258;2023-01-20T04:48:05;4.30;99.90
41058;DHT22;66768;48.884;2.258;2023-01-20T04:50:32;4.30;99.90
41058;DHT22;66768;48.884;2.258;2023-01-20T04:53:03;4.40;99.90
41058;DHT22;66768;48.884;2.258;2023-01-20T04:55:32;4.30;99.90
41058;DHT22;66768;48.884;2.258;2023-01-20T04:57:59;4.40;99.90
41058;DHT22;66768;48.884;2.258;2023-01-20T05:00:26;4.30;99.90
41058;DHT22;66768;48.884;2.258;2023-01-20T05:02:55;4.30;99.90
41058;DHT22;66768;48.884;2.258;2023-01-20T05:05:23;4.30;99.90
41058;DHT22;66768;48.884;2.258;2023-01-20T05:07:51;4.30;99.90
41058;DHT22;66768;48.884;2.258;2023-01-20T05:10:18;4.30;99.90
41058;DHT22;66768;48.884;2.258;2023-01-20T05:12:46;4.30;99.90
41058;DHT22;66768;48.884;2.258;2023-01-20T05:15:13;4.10;99.90
41058;DHT22;66768;48.884;2.258;2023-01-20T05:17:40;4.10;99.90
41058;DHT22;66768;48.884;2.258;2023-01-20T05:20:08;4.10;99.90
41058;DHT22;66768;48.884;2.258;2023-01-20T05:22:35;4.10;99.90
41058;DHT22;66768;48.884;2.258;2023-01-20T05:25:03;4.10;99.90
41058;DHT22;66768;48.884;2.258;2023-01-20T05:27:30;4.00;99.90
41058;DHT22;66768;48.884;2.258;2023-01-20T05:30:00;4.00;99.90
41058;DHT22;66768;48.884;2.258;2023-01-20T05:32:27;4.10;99.90
41058;DHT22;66768;48.884;2.258;2023-01-20T05:34:54;4.10;99.90
41058;DHT22;66768;48.884;2.258;2023-01-20T05:37:21;4.10;99.90
41058;DHT22;66768;48.884;2.258;2023-01-20T05:39:48;4.10;99.90
41058;DHT22;66768;48.884;2.258;2023-01-20T05:42:15;4.10;99.90
41058;DHT22;66768;48.884;2.258;2023-01-20T05:44:42;4.10;99.90
41058;DHT22;66768;48.884;2.258;2023-01-20T05:47:10;4.10;99.90
41058;DHT22;66768;48.884;2.258;2023-01-20T05:49:37;4.10;99.90
41058;DHT22;66768;48.884;2.258;2023-01-20T05:52:04;4.20;99.90
41058;DHT22;66768;48.884;2.258;2023-01-20T05:54:31;4.20;99.90
41058;DHT22;66768;48.884;2.258;2023-01-20T05:56:58;4.10;99.90
41058;DHT22;66768;48.884;2.258;2023-01-20T05:59:25;4.10;99.90
41058;DHT22;66768;48.884;2.258;2023-01-20T06:01:52;4.10;99.90
41058;DHT22;66768;48.884;2.258;2023-01-20T06:04:20;4.10;99.90
41058;DHT22;66768;48.884;2.258;2023-01-20T06:06:47;4.10;99.90
41058;DHT22;66768;48.884;2.258;2023-01-20T06:09:14;4.10;99.90
41058;DHT22;66768;48.884;2.258;2023-01-20T06:11:41;4.10;99.90
41058;DHT22;66768;48.884;2.258;2023-01-20T06:14:07;4.00;99.90
41058;DHT22;66768;48.884;2.258;2023-01-20T06:16:34;4.00;99.90
41058;DHT22;66768;48.884;2.258;2023-01-20T06:19:01;4.00;99.90
41058;DHT22;66768;48.884;2.258;2023-01-20T06:21:30;4.00;99.90
41058;DHT22;66768;48.884;2.258;2023-01-20T06:23:56;4.00;99.90
41058;DHT22;66768;48.884;2.258;2023-01-20T06:26:23;3.90;99.90
41058;DHT22;66768;48.884;2.258;2023-01-20T06:28:50;4.00;99.90
41058;DHT22;66768;48.884;2.258;2023-01-20T06:31:17;3.90;99.90
41058;DHT22;66768;48.884;2.258;2023-01-20T06:33:44;3.90;99.90
41058;DHT22;66768;48.884;2.258;2023-01-20T06:36:11;3.90;99.90
41058;DHT22;66768;48.884;2.258;2023-01-20T06:38:42;4.00;99.90
41058;DHT22;66768;48.884;2.258;2023-01-20T06:41:13;3.90;99.90
41058;DHT22;66768;48.884;2.258;2023-01-20T06:43:40;4.00;99.90
41058;DHT22;66768;48.884;2.258;2023-01-20T06:46:09;4.00;99.90
41058;DHT22;66768;48.884;2.258;2023-01-20T06:48:37;4.00;99.90
41058;DHT22;66768;48.884;2.258;2023-01-20T06:51:05;4.00;99.90
41058;DHT22;66768;48.884;2.258;2023-01-20T06:53:33;4.00;99.90
41058;DHT22;66768;48.884;2.258;2023-01-20T06:56:01;4.00;99.90
41058;DHT22;66768;48.884;2.258;2023-01-20T06:58:29;4.00;99.90
41058;DHT22;66768;48.884;2.258;2023-01-20T07:01:02;4.00;99.90
41058;DHT22;66768;48.884;2.258;2023-01-20T07:03:29;4.00;99.90
41058;DHT22;66768;48.884;2.258;2023-01-20T07:05:59;4.00;99.90
41058;DHT22;66768;48.884;2.258;2023-01-20T07:08:26;4.00;99.90
41058;DHT22;66768;48.884;2.258;2023-01-20T07:10:53;4.00;99.90
41058;DHT22;66768;48.884;2.258;2023-01-20T07:13:21;4.00;99.90
41058;DHT22;66768;48.884;2.258;2023-01-20T07:15:48;4.10;99.90
41058;DHT22;66768;48.884;2.258;2023-01-20T07:18:15;4.10;99.90
41058;DHT22;66768;48.884;2.258;2023-01-20T07:20:42;4.10;99.90
41058;DHT22;66768;48.884;2.258;2023-01-20T07:23:09;4.10;99.90
41058;DHT22;66768;48.884;2.258;2023-01-20T07:25:36;4.20;99.90
41058;DHT22;66768;48.884;2.258;2023-01-20T07:28:04;4.10;99.90
41058;DHT22;66768;48.884;2.258;2023-01-20T07:30:32;4.20;99.90
41058;DHT22;66768;48.884;2.258;2023-01-20T07:32:59;4.20;99.90
41058;DHT22;66768;48.884;2.258;2023-01-20T07:35:26;4.30;99.90
41058;DHT22;66768;48.884;2.258;2023-01-20T07:37:53;4.30;99.90
41058;DHT22;66768;48.884;2.258;2023-01-20T07:40:20;4.30;99.90
41058;DHT22;66768;48.884;2.258;2023-01-20T07:42:46;4.30;99.90
41058;DHT22;66768;48.884;2.258;2023-01-20T07:45:13;4.30;99.90
41058;DHT22;66768;48.884;2.258;2023-01-20T07:47:42;4.30;99.90
41058;DHT22;66768;48.884;2.258;2023-01-20T07:50:09;4.40;99.90
41058;DHT22;66768;48.884;2.258;2023-01-20T07:52:36;4.40;99.90
41058;DHT22;66768;48.884;2.258;2023-01-20T07:55:04;4.40;99.90
41058;DHT22;66768;48.884;2.258;2023-01-20T07:57:31;4.50;99.90
41058;DHT22;66768;48.884;2.258;2023-01-20T07:59:58;4.50;99.90
41058;DHT22;66768;48.884;2.258;2023-01-20T08:02:25;4.60;99.90
41058;DHT22;66768;48.884;2.258;2023-01-20T08:04:53;4.60;99.90
41058;DHT22;66768;48.884;2.258;2023-01-20T08:07:20;4.60;99.90
41058;DHT22;66768;48.884;2.258;2023-01-20T08:09:47;4.60;99.90
41058;DHT22;66768;48.884;2.258;2023-01-20T08:12:14;4.70;99.90
41058;DHT22;66768;48.884;2.258;2023-01-20T08:14:41;4.70;99.90
41058;DHT22;66768;48.884;2.258;2023-01-20T08:17:08;4.80;99.90
41058;DHT22;66768;48.884;2.258;2023-01-20T08:19:35;4.80;99.90
41058;DHT22;66768;48.884;2.258;2023-01-20T08:22:03;4.70;99.90
41058;DHT22;66768;48.884;2.258;2023-01-20T08:24:30;4.80;99.90
41058;DHT22;66768;48.884;2.258;2023-01-20T08:26:57;4.80;99.90
41058;DHT22;66768;48.884;2.258;2023-01-20T08:29:24;4.80;99.90
41058;DHT22;66768;48.884;2.258;2023-01-20T08:31:51;4.90;99.90
41058;DHT22;66768;48.884;2.258;2023-01-20T08:34:18;4.70;99.90
41058;DHT22;66768;48.884;2.258;2023-01-20T08:36:46;4.70;99.90
41058;DHT22;66768;48.884;2.258;2023-01-20T08:39:16;4.60;99.90
41058;DHT22;66768;48.884;2.258;2023-01-20T08:41:44;4.70;99.90
41058;DHT22;66768;48.884;2.258;2023-01-20T08:44:11;4.80;99.90
41058;DHT22;66768;48.884;2.258;2023-01-20T08:46:39;4.80;99.90
41058;DHT22;66768;48.884;2.258;2023-01-20T08:49:07;4.80;99.90
41058;DHT22;66768;48.884;2.258;2023-01-20T08:51:34;4.80;99.90
41058;DHT22;66768;48.884;2.258;2023-01-20T08:54:01;4.80;99.90
41058;DHT22;66768;48.884;2.258;2023-01-20T08:56:30;4.80;99.90
41058;DHT22;66768;48.884;2.258;2023-01-20T08:58:58;4.80;99.90
41058;DHT22;66768;48.884;2.258;2023-01-20T09:01:28;4.70;99.90
41058;DHT22;66768;48.884;2.258;2023-01-20T09:03:56;4.80;99.90
41058;DHT22;66768;48.884;2.258;2023-01-20T09:06:23;4.70;99.90
41058;DHT22;66768;48.884;2.258;2023-01-20T09:08:51;4.80;99.90
41058;DHT22;66768;48.884;2.258;2023-01-20T09:11:21;4.70;99.90
41058;DHT22;66768;48.884;2.258;2023-01-20T09:13:50;4.70;99.90
41058;DHT22;66768;48.884;2.258;2023-01-20T09:16:17;4.70;99.90
41058;DHT22;66768;48.884;2.258;2023-01-20T09:18:44;4.70;99.90
41058;DHT22;66768;48.884;2.258;2023-01-20T09:21:12;4.80;99.90
41058;DHT22;66768;48.884;2.258;2023-01-20T09:23:39;4.80;99.90
41058;DHT22;66768;48.884;2.258;2023-01-20T09:26:07;4.80;99.90
41058;DHT22;66768;48.884;2.258;2023-01-20T09:28:35;4.90;99.90
41058;DHT22;66768;48.884;2.258;2023-01-20T09:31:04;4.90;99.90
41058;DHT22;66768;48.884;2.258;2023-01-20T09:33:32;5.00;99.90
41058;DHT22;66768;48.884;2.258;2023-01-20T09:36:01;5.00;99.90
41058;DHT22;66768;48.884;2.258;2023-01-20T09:38:28;5.00;99.90
41058;DHT22;66768;48.884;2.258;2023-01-20T09:41:16;5.00;99.90
41058;DHT22;66768;48.884;2.258;2023-01-20T09:44:11;5.00;99.90
41058;DHT22;66768;48.884;2.258;2023-01-20T09:46:55;5.10;99.90
41058;DHT22;66768;48.884;2.258;2023-01-20T09:52:54;5.10;99.90
41058;DHT22;66768;48.884;2.258;2023-01-20T09:55:31;5.20;99.90
41058;DHT22;66768;48.884;2.258;2023-01-20T09:58:06;5.30;99.90
41058;DHT22;66768;48.884;2.258;2023-01-20T10:00:37;5.30;99.90
41058;DHT22;66768;48.884;2.258;2023-01-20T10:03:13;5.30;99.90
41058;DHT22;66768;48.884;2.258;2023-01-20T10:05:43;5.30;99.90
41058;DHT22;66768;48.884;2.258;2023-01-20T10:08:15;5.40;99.90
41058;DHT22;66768;48.884;2.258;2023-01-20T10:10:48;5.50;99.90
41058;DHT22;66768;48.884;2.258;2023-01-20T10:13:20;5.50;99.90
41058;DHT22;66768;48.884;2.258;2023-01-20T10:15:52;5.50;99.90
41058;DHT22;66768;48.884;2.258;2023-01-20T10:18:27;5.50;99.90
41058;DHT22;66768;48.884;2.258;2023-01-20T10:20:59;5.70;99.90
41058;DHT22;66768;48.884;2.258;2023-01-20T10:23:32;5.80;99.90
41058;DHT22;66768;48.884;2.258;2023-01-20T10:26:06;5.80;99.90
41058;DHT22;66768;48.884;2.258;2023-01-20T10:28:37;5.90;99.90
41058;DHT22;66768;48.884;2.258;2023-01-20T10:31:06;5.60;99.90
41058;DHT22;66768;48.884;2.258;2023-01-20T10:33:37;5.80;99.90
41058;DHT22;66768;48.884;2.258;2023-01-20T10:36:11;5.80;99.90
41058;DHT22;66768;48.884;2.258;2023-01-20T10:38:45;5.90;99.90
41058;DHT22;66768;48.884;2.258;2023-01-20T10:41:16;5.90;99.90
41058;DHT22;66768;48.884;2.258;2023-01-20T10:43:45;5.90;99.90
41058;DHT22;66768;48.884;2.258;2023-01-20T10:46:31;5.70;99.90
41058;DHT22;66768;48.884;2.258;2023-01-20T10:52:10;5.80;99.90
41058;DHT22;66768;48.884;2.258;2023-01-20T10:54:47;5.70;99.90
41058;DHT22;66768;48.884;2.258;2023-01-20T10:57:15;5.80;99.90
41058;DHT22;66768;48.884;2.258;2023-01-20T10:59:45;5.80;99.90
41058;DHT22;66768;48.884;2.258;2023-01-20T11:02:16;5.90;99.90
41058;DHT22;66768;48.884;2.258;2023-01-20T11:04:50;5.90;99.90
41058;DHT22;66768;48.884;2.258;2023-01-20T11:07:18;6.00;99.90
41058;DHT22;66768;48.884;2.258;2023-01-20T11:09:46;5.90;99.90
41058;DHT22;66768;48.884;2.258;2023-01-20T11:12:15;6.00;99.90
41058;DHT22;66768;48.884;2.258;2023-01-20T11:14:42;5.90;99.90
41058;DHT22;66768;48.884;2.258;2023-01-20T11:17:13;5.80;99.90
41058;DHT22;66768;48.884;2.258;2023-01-20T11:19:47;5.90;99.90
41058;DHT22;66768;48.884;2.258;2023-01-20T11:22:17;5.90;99.90
41058;DHT22;66768;48.884;2.258;2023-01-20T11:24:52;5.80;99.90
41058;DHT22;66768;48.884;2.258;2023-01-20T11:27:21;5.90;99.90
41058;DHT22;66768;48.884;2.258;2023-01-20T11:29:50;5.80;99.90
41058;DHT22;66768;48.884;2.258;2023-01-20T11:32:30;5.80;99.90
41058;DHT22;66768;48.884;2.258;2023-01-20T11:34:59;5.80;99.90
41058;DHT22;66768;48.884;2.258;2023-01-20T11:37:33;5.90;99.90
41058;DHT22;66768;48.884;2.258;2023-01-20T11:40:05;6.00;99.90
41058;DHT22;66768;48.884;2.258;2023-01-20T11:42:42;6.10;99.90
41058;DHT22;66768;48.884;2.258;2023-01-20T11:45:26;6.00;99.90
41058;DHT22;66768;48.884;2.258;2023-01-20T11:48:05;6.10;99.90
41058;DHT22;66768;48.884;2.258;2023-01-20T11:50:45;6.00;99.90
41058;DHT22;66768;48.884;2.258;2023-01-20T11:53:19;6.10;99.90
41058;DHT22;66768;48.884;2.258;2023-01-20T11:55:50;6.10;99.90
41058;DHT22;66768;48.884;2.258;2023-01-20T11:58:18;6.10;99.90
41058;DHT22;66768;48.884;2.258;2023-01-20T12:00:46;6.00;99.90
41058;DHT22;66768;48.884;2.258;2023-01-20T12:06:28;6.10;99.90
41058;DHT22;66768;48.884;2.258;2023-01-20T12:09:00;6.10;99.90
41058;DHT22;66768;48.884;2.258;2023-01-20T12:11:31;6.10;99.90
41058;DHT22;66768;48.884;2.258;2023-01-20T12:14:16;6.20;99.90
41058;DHT22;66768;48.884;2.258;2023-01-20T12:17:13;6.20;99.90
41058;DHT22;66768;48.884;2.258;2023-01-20T12:20:01;6.20;99.90
41058;DHT22;66768;48.884;2.258;2023-01-20T12:22:43;6.20;99.90
41058;DHT22;66768;48.884;2.258;2023-01-20T12:25:20;6.20;99.90
41058;DHT22;66768;48.884;2.258;2023-01-20T12:27:50;6.20;99.90
41058;DHT22;66768;48.884;2.258;2023-01-20T12:30:39;6.30;99.90
41058;DHT22;66768;48.884;2.258;2023-01-20T12:33:16;6.30;99.90
41058;DHT22;66768;48.884;2.258;2023-01-20T12:36:03;6.20;99.90
41058;DHT22;66768;48.884;2.258;2023-01-20T12:38:40;6.30;99.90
41058;DHT22;66768;48.884;2.258;2023-01-20T12:41:14;6.40;99.90
41058;DHT22;66768;48.884;2.258;2023-01-20T12:43:53;6.40;99.90
41058;DHT22;66768;48.884;2.258;2023-01-20T12:46:35;6.40;99.90
41058;DHT22;66768;48.884;2.258;2023-01-20T12:49:33;6.40;99.90
41058;DHT22;66768;48.884;2.258;2023-01-20T12:52:23;6.40;99.90
41058;DHT22;66768;48.884;2.258;2023-01-20T12:55:11;6.50;99.90
41058;DHT22;66768;48.884;2.258;2023-01-20T12:57:50;6.40;99.90
41058;DHT22;66768;48.884;2.258;2023-01-20T13:00:38;6.50;99.90
41058;DHT22;66768;48.884;2.258;2023-01-20T13:06:36;6.50;99.90
41058;DHT22;66768;48.884;2.258;2023-01-20T13:09:16;6.50;99.90
41058;DHT22;66768;48.884;2.258;2023-01-20T13:11:56;6.50;99.90
41058;DHT22;66768;48.884;2.258;2023-01-20T13:14:32;6.50;99.90
41058;DHT22;66768;48.884;2.258;2023-01-20T13:17:12;6.60;99.90
41058;DHT22;66768;48.884;2.258;2023-01-20T13:19:41;6.60;99.90
41058;DHT22;66768;48.884;2.258;2023-01-20T13:22:13;6.60;99.90
41058;DHT22;66768;48.884;2.258;2023-01-20T13:24:43;6.70;99.90
41058;DHT22;66768;48.884;2.258;2023-01-20T13:27:12;6.70;99.90
41058;DHT22;66768;48.884;2.258;2023-01-20T13:29:42;6.80;99.90
41058;DHT22;66768;48.884;2.258;2023-01-20T13:32:32;6.80;99.90
41058;DHT22;66768;48.884;2.258;2023-01-20T13:35:00;6.90;99.90
41058;DHT22;66768;48.884;2.258;2023-01-20T13:37:35;6.90;99.90
41058;DHT22;66768;48.884;2.258;2023-01-20T13:40:17;7.00;99.90
41058;DHT22;66768;48.884;2.258;2023-01-20T13:42:59;7.00;99.90
41058;DHT22;66768;48.884;2.258;2023-01-20T13:45:26;7.10;99.90
41058;DHT22;66768;48.884;2.258;2023-01-20T13:47:59;7.20;99.90
41058;DHT22;66768;48.884;2.258;2023-01-20T13:50:29;7.20;99.90
41058;DHT22;66768;48.884;2.258;2023-01-20T13:53:13;7.30;99.90
41058;DHT22;66768;48.884;2.258;2023-01-20T13:56:05;7.30;99.90
41058;DHT22;66768;48.884;2.258;2023-01-20T13:58:50;7.40;99.90
41058;DHT22;66768;48.884;2.258;2023-01-20T14:01:17;7.40;99.90
41058;DHT22;66768;48.884;2.258;2023-01-20T14:04:00;7.50;99.90
41058;DHT22;66768;48.884;2.258;2023-01-20T14:06:28;7.80;99.90
41058;DHT22;66768;48.884;2.258;2023-01-20T14:08:57;7.60;99.90
41058;DHT22;66768;48.884;2.258;2023-01-20T14:11:26;7.50;99.90
41058;DHT22;66768;48.884;2.258;2023-01-20T14:13:56;7.60;99.90
41058;DHT22;66768;48.884;2.258;2023-01-20T14:16:26;7.60;99.90
41058;DHT22;66768;48.884;2.258;2023-01-20T14:18:54;7.70;99.90
41058;DHT22;66768;48.884;2.258;2023-01-20T14:21:24;7.70;99.90
41058;DHT22;66768;48.884;2.258;2023-01-20T14:23:51;7.70;99.90
41058;DHT22;66768;48.884;2.258;2023-01-20T14:26:23;7.70;99.90
41058;DHT22;66768;48.884;2.258;2023-01-20T14:28:52;7.70;99.90
41058;DHT22;66768;48.884;2.258;2023-01-20T14:31:29;7.70;99.90
41058;DHT22;66768;48.884;2.258;2023-01-20T14:34:15;7.70;99.90
41058;DHT22;66768;48.884;2.258;2023-01-20T14:36:44;7.60;99.90
41058;DHT22;66768;48.884;2.258;2023-01-20T14:39:18;7.70;99.90
41058;DHT22;66768;48.884;2.258;2023-01-20T14:41:47;7.60;99.90
41058;DHT22;66768;48.884;2.258;2023-01-20T14:44:18;7.60;99.90
41058;DHT22;66768;48.884;2.258;2023-01-20T14:46:48;7.70;99.90
41058;DHT22;66768;48.884;2.258;2023-01-20T14:49:16;7.80;99.90
41058;DHT22;66768;48.884;2.258;2023-01-20T14:51:45;7.70;99.90
41058;DHT22;66768;48.884;2.258;2023-01-20T14:54:32;7.80;99.90
41058;DHT22;66768;48.884;2.258;2023-01-20T14:57:20;7.80;99.90
41058;DHT22;66768;48.884;2.258;2023-01-20T15:00:03;7.80;99.90
41058;DHT22;66768;48.884;2.258;2023-01-20T15:02:33;7.70;99.90
41058;DHT22;66768;48.884;2.258;2023-01-20T15:05:01;7.70;99.90
41058;DHT22;66768;48.884;2.258;2023-01-20T15:07:28;7.70;99.90
41058;DHT22;66768;48.884;2.258;2023-01-20T15:10:00;7.70;99.90
41058;DHT22;66768;48.884;2.258;2023-01-20T15:12:32;7.70;99.90
41058;DHT22;66768;48.884;2.258;2023-01-20T15:18:22;7.70;99.90
41058;DHT22;66768;48.884;2.258;2023-01-20T15:20:52;7.60;99.90
41058;DHT22;66768;48.884;2.258;2023-01-20T15:23:22;7.60;99.90
41058;DHT22;66768;48.884;2.258;2023-01-20T15:25:50;7.70;99.90
41058;DHT22;66768;48.884;2.258;2023-01-20T15:28:24;7.70;99.90
41058;DHT22;66768;48.884;2.258;2023-01-20T15:30:52;7.60;99.90
41058;DHT22;66768;48.884;2.258;2023-01-20T15:33:20;7.60;99.90
41058;DHT22;66768;48.884;2.258;2023-01-20T15:35:57;7.60;99.90
41058;DHT22;66768;48.884;2.258;2023-01-20T15:38:27;7.70;99.90
41058;DHT22;66768;48.884;2.258;2023-01-20T15:40:54;7.70;99.90
41058;DHT22;66768;48.884;2.258;2023-01-20T15:43:21;7.80;99.90
41058;DHT22;66768;48.884;2.258;2023-01-20T15:45:48;7.70;99.90
41058;DHT22;66768;48.884;2.258;2023-01-20T15:48:17;7.70;99.90
41058;DHT22;66768;48.884;2.258;2023-01-20T15:50:45;7.70;99.90
41058;DHT22;66768;48.884;2.258;2023-01-20T15:53:14;7.70;99.90
41058;DHT22;66768;48.884;2.258;2023-01-20T15:55:45;7.70;99.90
41058;DHT22;66768;48.884;2.258;2023-01-20T15:58:21;7.70;99.90
41058;DHT22;66768;48.884;2.258;2023-01-20T16:00:49;7.70;99.90
41058;DHT22;66768;48.884;2.258;2023-01-20T16:03:16;7.80;99.90
41058;DHT22;66768;48.884;2.258;2023-01-20T16:05:43;7.70;99.90
41058;DHT22;66768;48.884;2.258;2023-01-20T16:08:15;7.70;99.90
41058;DHT22;66768;48.884;2.258;2023-01-20T16:10:42;7.60;99.90
41058;DHT22;66768;48.884;2.258;2023-01-20T16:13:09;7.60;99.90
41058;DHT22;66768;48.884;2.258;2023-01-20T16:15:37;7.60;99.90
41058;DHT22;66768;48.884;2.258;2023-01-20T16:18:04;7.60;99.90
41058;DHT22;66768;48.884;2.258;2023-01-20T16:20:33;7.60;99.90
41058;DHT22;66768;48.884;2.258;2023-01-20T16:23:01;7.60;99.90
41058;DHT22;66768;48.884;2.258;2023-01-20T16:25:29;7.60;99.90